createdAt,value
2023-04-20T00:01:27.168Z,28.40
2023-04-20T00:03:55.010Z,30.33
2023-04-20T00:06:22.351Z,29.67
2023-04-20T00:08:49.721Z,31.47
2023-04-20T00:11:17.079Z,31.57
2023-04-20T00:13:44.288Z,33.10
2023-04-20T00:16:12.114Z,31.00
2023-04-20T00:18:40.582Z,30.67
2023-04-20T00:21:08.058Z,31.50
2023-04-20T00:23:35.409Z,32.30
2023-04-20T00:26:02.874Z,29.67
2023-04-20T00:28:30.595Z,27.97
2023-04-20T00:30:58.279Z,25.73
2023-04-20T00:33:25.867Z,26.47
2023-04-20T00:35:53.204Z,27.77
2023-04-20T00:38:20.683Z,26.83
2023-04-20T00:40:53.266Z,26.03
2023-04-20T00:43:21.503Z,26.93
2023-04-20T00:45:48.910Z,26.97
2023-04-20T00:48:16.238Z,26.60
2023-04-20T00:50:43.730Z,27.13
2023-04-20T00:53:11.753Z,26.37
2023-04-20T00:55:39.531Z,26.53
2023-04-20T00:58:07.337Z,24.40
2023-04-20T01:00:35.260Z,23.73
2023-04-20T01:03:02.909Z,22.90
2023-04-20T01:05:32.779Z,23.57
2023-04-20T01:08:00.441Z,22.43
2023-04-20T01:10:27.673Z,22.63
2023-04-20T01:12:55.035Z,21.93
2023-04-20T01:15:22.347Z,20.07
2023-04-20T01:17:50.022Z,21.60
2023-04-20T01:20:17.387Z,20.63
2023-04-20T01:22:49.674Z,20.30
2023-04-20T01:25:18.154Z,20.77
2023-04-20T01:27:45.922Z,21.67
2023-04-20T01:30:13.743Z,19.83
2023-04-20T01:32:41.790Z,20.13
2023-04-20T01:35:10.779Z,19.80
2023-04-20T01:37:38.652Z,19.23
2023-04-20T01:40:08.956Z,19.10
2023-04-20T01:42:36.327Z,20.33
2023-04-20T01:45:06.493Z,20.33
2023-04-20T01:47:35.071Z,20.73
2023-04-20T01:50:02.658Z,20.37
2023-04-20T01:52:29.945Z,20.13
2023-04-20T01:54:57.290Z,21.63
2023-04-20T01:57:25.001Z,21.93
2023-04-20T01:59:52.826Z,22.40
2023-04-20T02:02:20.165Z,23.37
2023-04-20T02:04:47.542Z,20.17
2023-04-20T02:07:14.790Z,20.30
2023-04-20T02:09:42.128Z,21.80
2023-04-20T02:12:09.415Z,22.83
2023-04-20T02:14:36.699Z,25.33
2023-04-20T02:17:04.098Z,24.17
2023-04-20T02:19:31.363Z,25.00
2023-04-20T02:21:58.591Z,24.77
2023-04-20T02:24:26.003Z,25.10
2023-04-20T02:26:53.425Z,25.80
2023-04-20T02:29:21.032Z,24.97
2023-04-20T02:31:48.432Z,27.43
2023-04-20T02:34:16.099Z,28.50
2023-04-20T02:36:43.361Z,30.60
2023-04-20T02:39:10.910Z,34.10
2023-04-20T02:41:38.121Z,30.23
2023-04-20T02:44:05.740Z,28.00
2023-04-20T02:46:33.153Z,27.30
2023-04-20T02:49:01.022Z,27.70
2023-04-20T02:51:28.495Z,28.63
2023-04-20T02:53:56.578Z,28.83
2023-04-20T02:56:23.909Z,27.80
2023-04-20T02:58:52.557Z,28.20
2023-04-20T03:01:19.861Z,27.03
2023-04-20T03:03:47.310Z,29.97
2023-04-20T03:06:14.851Z,31.27
2023-04-20T03:08:42.363Z,31.83
2023-04-20T03:11:09.665Z,32.10
2023-04-20T03:13:36.935Z,30.00
2023-04-20T03:16:05.754Z,32.23
2023-04-20T03:18:33.059Z,29.97
2023-04-20T03:21:00.519Z,32.23
2023-04-20T03:23:27.974Z,30.40
2023-04-20T03:25:55.291Z,31.33
2023-04-20T03:28:22.783Z,29.77
2023-04-20T03:30:53.269Z,28.20
2023-04-20T03:33:20.761Z,27.97
2023-04-20T03:35:48.021Z,27.37
2023-04-20T03:38:15.366Z,27.97
2023-04-20T03:40:42.666Z,27.20
2023-04-20T03:43:11.622Z,27.30
2023-04-20T03:45:39.043Z,28.53
2023-04-20T03:48:06.522Z,28.57
2023-04-20T03:50:33.809Z,26.70
2023-04-20T03:53:01.319Z,27.67
2023-04-20T03:55:28.737Z,27.17
2023-04-20T03:57:56.308Z,25.63
2023-04-20T04:00:23.733Z,26.60
2023-04-20T04:02:51.501Z,25.83
2023-04-20T04:05:19.416Z,27.13
2023-04-20T04:07:46.827Z,26.17
2023-04-20T04:10:14.189Z,26.63
2023-04-20T04:12:41.580Z,27.53
2023-04-20T04:15:09.432Z,27.50
2023-04-20T04:17:36.927Z,26.70
2023-04-20T04:20:04.931Z,27.87
2023-04-20T04:22:32.474Z,26.75
2023-04-20T04:24:59.870Z,28.60
2023-04-20T04:27:30.434Z,27.30
2023-04-20T04:29:57.765Z,27.97
2023-04-20T04:32:25.148Z,29.07
2023-04-20T04:34:54.222Z,28.87
2023-04-20T04:37:22.078Z,28.80
2023-04-20T04:39:50.349Z,29.27
2023-04-20T04:42:17.702Z,30.83
2023-04-20T04:44:45.275Z,30.63
2023-04-20T04:47:12.523Z,29.23
2023-04-20T04:49:41.018Z,29.47
2023-04-20T04:52:10.568Z,28.57
2023-04-20T04:54:38.193Z,30.70
2023-04-20T04:57:05.566Z,29.33
2023-04-20T04:59:33.101Z,30.07
2023-04-20T05:02:00.617Z,31.87
2023-04-20T05:04:27.999Z,31.07
2023-04-20T05:06:55.350Z,31.37
2023-04-20T05:09:22.978Z,31.00
2023-04-20T05:11:50.205Z,30.80
2023-04-20T05:14:17.511Z,34.07
2023-04-20T05:16:44.966Z,38.70
2023-04-20T05:19:12.294Z,40.73
2023-04-20T05:21:39.807Z,39.03
2023-04-20T05:24:08.281Z,38.97
2023-04-20T05:26:35.626Z,41.40
2023-04-20T05:29:03.038Z,40.97
2023-04-20T05:31:31.205Z,37.13
2023-04-20T05:33:58.597Z,39.63
2023-04-20T05:36:26.818Z,41.13
2023-04-20T05:38:54.347Z,37.40
2023-04-20T05:41:27.010Z,37.80
2023-04-20T05:43:55.015Z,40.37
2023-04-20T05:46:22.898Z,39.03
2023-04-20T05:48:50.812Z,42.47
2023-04-20T05:51:18.236Z,42.73
2023-04-20T05:53:45.417Z,36.83
2023-04-20T05:56:12.977Z,36.33
2023-04-20T05:58:40.335Z,38.90
2023-04-20T06:01:07.820Z,38.67
2023-04-20T06:03:35.234Z,40.47
2023-04-20T06:06:02.869Z,38.93
2023-04-20T06:08:30.243Z,39.60
2023-04-20T06:10:58.453Z,39.40
2023-04-20T06:13:26.531Z,38.03
2023-04-20T06:15:54.443Z,37.13
2023-04-20T06:18:21.933Z,37.77
2023-04-20T06:20:49.158Z,37.53
2023-04-20T06:23:16.528Z,39.50
2023-04-20T06:25:44.402Z,38.33
2023-04-20T06:28:11.843Z,38.40
2023-04-20T06:30:39.613Z,36.50
2023-04-20T06:33:07.420Z,38.30
2023-04-20T06:35:36.307Z,36.57
2023-04-20T06:38:03.929Z,35.80
2023-04-20T06:40:31.264Z,36.20
2023-04-20T06:42:58.881Z,37.10
2023-04-20T06:45:26.188Z,39.43
2023-04-20T06:47:53.833Z,36.50
2023-04-20T06:50:22.329Z,36.10
2023-04-20T06:52:49.602Z,37.27
2023-04-20T06:55:18.325Z,36.37
2023-04-20T06:57:45.850Z,36.80
2023-04-20T07:00:13.598Z,36.97
2023-04-20T07:02:49.625Z,36.53
2023-04-20T07:05:18.001Z,37.97
2023-04-20T07:07:46.230Z,37.37
2023-04-20T07:10:14.944Z,37.27
2023-04-20T07:12:43.782Z,35.67
2023-04-20T07:15:11.854Z,35.87
2023-04-20T07:17:39.427Z,37.13
2023-04-20T07:20:08.848Z,36.77
2023-04-20T07:22:37.606Z,35.17
2023-04-20T07:25:07.120Z,34.87
2023-04-20T07:27:39.553Z,36.30
2023-04-20T07:30:09.115Z,35.53
2023-04-20T07:32:37.400Z,35.53
2023-04-20T07:35:05.165Z,35.27
2023-04-20T07:37:33.628Z,34.53
2023-04-20T07:40:01.016Z,33.77
2023-04-20T07:42:29.791Z,36.03
2023-04-20T07:44:59.568Z,32.23
2023-04-20T07:47:26.860Z,58.20
2023-04-20T07:49:54.875Z,33.30
2023-04-20T07:52:22.450Z,34.70
2023-04-20T07:54:49.740Z,31.30
2023-04-20T07:57:17.531Z,35.63
2023-04-20T07:59:46.672Z,33.97
2023-04-20T08:02:14.168Z,71.00
2023-04-20T08:04:41.797Z,37.17
2023-04-20T08:07:09.285Z,37.57
2023-04-20T08:09:36.770Z,32.57
2023-04-20T08:12:05.704Z,30.13
2023-04-20T08:14:34.018Z,33.20
2023-04-20T08:17:01.636Z,29.47
2023-04-20T08:19:29.086Z,29.27
2023-04-20T08:21:56.469Z,28.63
2023-04-20T08:24:23.806Z,27.03
2023-04-20T08:26:51.452Z,27.60
2023-04-20T08:29:18.902Z,30.33
2023-04-20T08:31:46.703Z,28.97
2023-04-20T08:34:15.017Z,28.87
2023-04-20T08:36:42.664Z,29.20
2023-04-20T08:39:14.887Z,29.07
2023-04-20T08:41:42.324Z,62.27
2023-04-20T08:44:10.088Z,35.07
2023-04-20T08:46:41.589Z,28.93
2023-04-20T08:49:13.390Z,30.13
2023-04-20T08:51:41.157Z,30.23
2023-04-20T08:54:08.619Z,85.67
2023-04-20T08:56:37.959Z,47.97
2023-04-20T08:59:06.314Z,30.20
2023-04-20T09:01:36.304Z,30.60
2023-04-20T09:04:15.352Z,52.50
2023-04-20T09:06:50.414Z,34.73
2023-04-20T09:09:22.172Z,28.40
2023-04-20T09:12:08.129Z,28.63
2023-04-20T09:14:46.916Z,32.67
2023-04-20T09:17:18.409Z,61.50
2023-04-20T09:19:46.815Z,27.20
2023-04-20T09:22:14.109Z,27.23
2023-04-20T09:24:42.709Z,26.73
2023-04-20T09:27:17.453Z,25.73
2023-04-20T09:29:45.598Z,35.83
2023-04-20T09:32:26.356Z,27.17
2023-04-20T09:34:53.801Z,30.60
2023-04-20T09:37:23.134Z,27.60
2023-04-20T09:39:53.659Z,26.67
2023-04-20T09:42:21.415Z,29.83
2023-04-20T09:44:49.528Z,30.00
2023-04-20T09:47:18.598Z,33.07
2023-04-20T09:49:49.418Z,27.47
2023-04-20T09:52:19.855Z,27.47
2023-04-20T09:54:47.428Z,26.67
2023-04-20T09:57:15.475Z,24.83
2023-04-20T09:59:47.835Z,25.03
2023-04-20T10:02:15.364Z,55.53
2023-04-20T10:04:57.033Z,28.20
2023-04-20T10:07:31.624Z,29.00
2023-04-20T10:10:08.621Z,25.77
2023-04-20T10:12:51.903Z,24.80
2023-04-20T10:15:19.795Z,25.87
2023-04-20T10:17:47.207Z,27.63
2023-04-20T10:20:28.654Z,23.60
2023-04-20T10:23:10.696Z,24.87
2023-04-20T10:25:38.200Z,24.97
2023-04-20T10:28:11.174Z,24.67
2023-04-20T10:30:50.559Z,25.40
2023-04-20T10:33:18.520Z,22.97
2023-04-20T10:35:49.711Z,23.77
2023-04-20T10:38:33.763Z,24.20
2023-04-20T10:41:11.298Z,23.30
2023-04-20T10:43:44.589Z,25.07
2023-04-20T10:46:22.897Z,24.27
2023-04-20T10:48:54.020Z,22.63
2023-04-20T10:51:21.683Z,24.07
2023-04-20T10:54:09.242Z,22.87
2023-04-20T10:56:43.629Z,22.53
2023-04-20T10:59:13.379Z,24.13
2023-04-20T11:01:41.654Z,21.33
2023-04-20T11:04:10.918Z,20.90
2023-04-20T11:06:44.619Z,20.67
2023-04-20T11:09:23.188Z,22.47
2023-04-20T11:12:12.351Z,23.27
2023-04-20T11:15:01.133Z,25.37
2023-04-20T11:17:37.382Z,23.47
2023-04-20T11:20:09.276Z,21.60
2023-04-20T11:22:36.620Z,19.27
2023-04-20T11:25:12.840Z,21.27
2023-04-20T11:27:43.428Z,20.60
2023-04-20T11:30:11.488Z,18.95
2023-04-20T11:32:39.507Z,19.10
2023-04-20T11:35:09.624Z,24.17
2023-04-20T11:37:54.090Z,18.33
2023-04-20T11:40:21.652Z,16.55
2023-04-20T11:42:49.019Z,16.95
2023-04-20T11:45:16.406Z,18.25
2023-04-20T11:47:43.996Z,27.15
2023-04-20T11:50:11.976Z,17.98
2023-04-20T11:52:39.593Z,15.90
2023-04-20T11:55:07.678Z,17.08
2023-04-20T11:57:34.977Z,17.83
2023-04-20T12:00:02.347Z,18.13
2023-04-20T12:02:29.928Z,16.70
2023-04-20T12:04:57.835Z,16.77
2023-04-20T12:07:25.442Z,15.85
2023-04-20T12:09:53.869Z,19.15
2023-04-20T12:12:22.388Z,19.25
2023-04-20T12:14:49.810Z,18.35
2023-04-20T12:17:17.098Z,19.30
2023-04-20T12:19:44.349Z,26.77
2023-04-20T12:22:11.766Z,28.27
2023-04-20T12:24:39.055Z,17.83
2023-04-20T12:27:06.421Z,19.00
2023-04-20T12:29:34.240Z,20.23
2023-04-20T12:32:01.513Z,19.60
2023-04-20T12:34:28.874Z,18.40
2023-04-20T12:36:57.901Z,17.48
2023-04-20T12:39:25.226Z,16.52
2023-04-20T12:41:55.705Z,16.15
2023-04-20T12:44:25.885Z,14.68
2023-04-20T12:46:56.645Z,17.10
2023-04-20T12:49:24.020Z,18.10
2023-04-20T12:51:51.846Z,29.95
2023-04-20T12:54:19.283Z,20.55
2023-04-20T12:56:47.389Z,14.95
2023-04-20T12:59:15.802Z,14.60
2023-04-20T13:01:43.074Z,14.00
2023-04-20T13:04:11.435Z,20.37
2023-04-20T13:06:42.161Z,16.53
2023-04-20T13:09:09.542Z,14.63
2023-04-20T13:11:36.884Z,15.33
2023-04-20T13:14:05.292Z,16.20
2023-04-20T13:16:33.261Z,14.03
2023-04-20T13:19:00.722Z,29.07
2023-04-20T13:21:28.064Z,16.63
2023-04-20T13:23:56.814Z,16.87
2023-04-20T13:26:24.593Z,23.33
2023-04-20T13:28:52.622Z,22.83
2023-04-20T13:31:19.871Z,18.83
2023-04-20T13:33:47.265Z,17.33
2023-04-20T13:36:15.103Z,27.17
2023-04-20T13:38:42.357Z,18.17
2023-04-20T13:41:09.795Z,18.33
2023-04-20T13:43:37.121Z,14.80
2023-04-20T13:46:04.425Z,14.57
2023-04-20T13:48:31.809Z,47.83
2023-04-20T13:50:59.304Z,17.53
2023-04-20T13:53:26.641Z,12.87
2023-04-20T13:55:53.965Z,12.60
2023-04-20T13:58:21.297Z,11.80
2023-04-20T14:00:48.582Z,11.20
2023-04-20T14:03:18.985Z,15.17
2023-04-20T14:05:46.729Z,19.30
2023-04-20T14:08:14.007Z,17.57
2023-04-20T14:10:41.509Z,14.30
2023-04-20T14:13:09.134Z,18.87
2023-04-20T14:15:36.495Z,24.60
2023-04-20T14:18:03.983Z,24.53
2023-04-20T14:20:34.521Z,39.97
2023-04-20T14:23:02.092Z,11.97
2023-04-20T14:25:29.704Z,10.68
2023-04-20T14:27:57.632Z,14.07
2023-04-20T14:30:25.478Z,7.97
2023-04-20T14:33:04.582Z,15.90
2023-04-20T14:35:31.913Z,20.07
2023-04-20T14:37:59.268Z,11.00
2023-04-20T14:40:26.694Z,8.13
2023-04-20T14:42:53.998Z,14.40
2023-04-20T14:45:21.396Z,15.27
2023-04-20T14:47:54.429Z,9.30
2023-04-20T14:50:21.987Z,12.30
2023-04-20T14:52:49.601Z,10.27
2023-04-20T14:55:17.427Z,10.63
2023-04-20T14:57:44.652Z,7.80
2023-04-20T15:00:12.418Z,15.90
2023-04-20T15:02:40.071Z,10.20
2023-04-20T15:05:10.553Z,17.53
2023-04-20T15:07:38.464Z,11.30
2023-04-20T15:10:06.043Z,8.10
2023-04-20T15:12:33.580Z,12.43
2023-04-20T15:15:00.923Z,14.67
2023-04-20T15:17:28.201Z,29.23
2023-04-20T15:19:55.460Z,13.97
2023-04-20T15:22:22.957Z,15.03
2023-04-20T15:24:50.393Z,9.67
2023-04-20T15:27:18.007Z,14.63
2023-04-20T15:29:45.651Z,9.53
2023-04-20T15:32:13.072Z,9.50
2023-04-20T15:34:40.732Z,10.70
2023-04-20T15:37:08.166Z,8.63
2023-04-20T15:39:35.557Z,9.03
2023-04-20T15:42:03.281Z,8.17
2023-04-20T15:44:30.743Z,8.10
2023-04-20T15:46:58.677Z,8.00
2023-04-20T15:49:26.151Z,13.87
2023-04-20T15:51:53.513Z,7.30
2023-04-20T15:54:28.255Z,6.77
2023-04-20T15:56:55.967Z,6.83
2023-04-20T15:59:23.282Z,6.23
2023-04-20T16:01:50.817Z,12.60
2023-04-20T16:04:18.586Z,14.27
2023-04-20T16:06:49.643Z,14.63
2023-04-20T16:09:17.988Z,16.53
2023-04-20T16:11:45.535Z,5.90
2023-04-20T16:14:13.037Z,16.10
2023-04-20T16:16:40.600Z,8.07
2023-04-20T16:19:08.109Z,6.30
2023-04-20T16:21:35.605Z,6.53
2023-04-20T16:24:05.716Z,5.97
2023-04-20T16:26:36.769Z,5.20
2023-04-20T16:29:04.286Z,4.97
2023-04-20T16:31:31.856Z,4.83
2023-04-20T16:33:59.449Z,15.73
2023-04-20T16:36:27.606Z,71.00
2023-04-20T16:38:55.136Z,8.47
2023-04-20T16:41:23.390Z,6.60
2023-04-20T16:43:51.125Z,4.53
2023-04-20T16:46:22.519Z,4.30
2023-04-20T16:48:51.371Z,6.47
2023-04-20T16:51:18.613Z,6.97
2023-04-20T16:53:46.041Z,6.73
2023-04-20T16:56:13.399Z,5.83
2023-04-20T16:58:41.053Z,5.40
2023-04-20T17:01:09.005Z,4.53
2023-04-20T17:03:36.635Z,4.03
2023-04-20T17:06:09.934Z,4.37
2023-04-20T17:08:40.235Z,5.43
2023-04-20T17:11:07.617Z,5.03
2023-04-20T17:13:34.993Z,5.90
2023-04-20T17:16:02.611Z,5.93
2023-04-20T17:18:33.402Z,7.03
2023-04-20T17:21:02.376Z,7.47
2023-04-20T17:23:30.354Z,7.73
2023-04-20T17:25:58.261Z,9.73
2023-04-20T17:28:26.109Z,14.60
2023-04-20T17:30:53.899Z,11.37
2023-04-20T17:33:21.711Z,23.90
2023-04-20T17:35:48.994Z,36.17
2023-04-20T17:38:16.324Z,24.50
2023-04-20T17:40:43.759Z,21.43
2023-04-20T17:43:11.561Z,16.10
2023-04-20T17:45:39.194Z,22.00
2023-04-20T17:48:07.013Z,27.67
2023-04-20T17:50:37.870Z,27.60
2023-04-20T17:53:07.185Z,24.50
2023-04-20T17:55:35.361Z,14.33
2023-04-20T17:58:02.930Z,13.43
2023-04-20T18:00:30.340Z,24.80
2023-04-20T18:02:59.327Z,32.80
2023-04-20T18:05:27.292Z,15.97
2023-04-20T18:07:54.636Z,11.50
2023-04-20T18:10:22.165Z,10.00
2023-04-20T18:12:49.444Z,8.27
2023-04-20T18:15:16.820Z,16.03
2023-04-20T18:17:44.674Z,19.37
2023-04-20T18:20:12.518Z,13.27
2023-04-20T18:22:40.502Z,13.97
2023-04-20T18:25:08.070Z,10.67
2023-04-20T18:27:38.606Z,13.27
2023-04-20T18:30:07.322Z,18.73
2023-04-20T18:32:36.711Z,33.40
2023-04-20T18:35:05.087Z,17.43
2023-04-20T18:37:32.509Z,12.90
2023-04-20T18:39:59.923Z,12.53
2023-04-20T18:42:27.219Z,13.73
2023-04-20T18:44:54.608Z,11.40
2023-04-20T18:47:24.962Z,12.03
2023-04-20T18:49:53.756Z,10.03
2023-04-20T18:52:22.209Z,9.23
2023-04-20T18:54:49.859Z,10.53
2023-04-20T18:57:17.321Z,12.03
2023-04-20T18:59:44.871Z,10.10
2023-04-20T19:02:13.834Z,12.67
2023-04-20T19:04:41.678Z,18.33
2023-04-20T19:07:08.934Z,17.53
2023-04-20T19:09:36.243Z,19.20
2023-04-20T19:12:03.785Z,20.83
2023-04-20T19:14:31.218Z,18.17
2023-04-20T19:16:58.899Z,15.60
2023-04-20T19:19:26.701Z,17.43
2023-04-20T19:21:54.455Z,25.43
2023-04-20T19:24:21.833Z,25.67
2023-04-20T19:26:49.133Z,18.53
2023-04-20T19:29:16.421Z,16.17
2023-04-20T19:31:43.759Z,13.73
2023-04-20T19:34:13.689Z,14.20
2023-04-20T19:36:42.135Z,18.00
2023-04-20T19:39:10.157Z,17.77
2023-04-20T19:41:38.198Z,16.33
2023-04-20T19:44:06.657Z,17.27
2023-04-20T19:46:34.352Z,17.47
2023-04-20T19:49:01.834Z,14.73
2023-04-20T19:51:29.985Z,13.20
2023-04-20T19:54:00.493Z,11.10
2023-04-20T19:56:27.975Z,14.77
2023-04-20T19:58:55.293Z,12.80
2023-04-20T20:01:22.539Z,10.30
2023-04-20T20:03:50.062Z,9.70
2023-04-20T20:06:17.552Z,9.37
2023-04-20T20:08:44.813Z,9.03
2023-04-20T20:11:12.165Z,8.30
2023-04-20T20:13:40.397Z,8.57
2023-04-20T20:16:07.665Z,7.63
2023-04-20T20:18:34.945Z,5.70
2023-04-20T20:21:02.351Z,6.17
2023-04-20T20:23:29.927Z,6.03
2023-04-20T20:25:57.264Z,6.37
2023-04-20T20:28:24.608Z,6.10
2023-04-20T20:30:53.785Z,5.20
2023-04-20T20:33:21.212Z,5.23
2023-04-20T20:35:48.610Z,5.67
2023-04-20T20:38:16.191Z,5.37
2023-04-20T20:40:44.038Z,5.97
2023-04-20T20:43:13.208Z,5.60
2023-04-20T20:45:40.481Z,5.70
2023-04-20T20:48:07.833Z,6.83
2023-04-20T20:50:35.271Z,10.57
2023-04-20T20:53:02.665Z,12.47
2023-04-20T20:55:30.604Z,12.77
2023-04-20T20:57:58.004Z,14.40
2023-04-20T21:00:25.378Z,14.10
2023-04-20T21:02:52.816Z,16.07
2023-04-20T21:05:23.080Z,14.50
2023-04-20T21:07:51.173Z,16.13
2023-04-20T21:10:19.049Z,17.87
2023-04-20T21:12:46.538Z,16.13
2023-04-20T21:15:13.819Z,13.17
2023-04-20T21:17:41.295Z,12.60
2023-04-20T21:20:09.690Z,11.07
2023-04-20T21:22:37.096Z,10.30
2023-04-20T21:25:04.918Z,11.43
2023-04-20T21:27:32.267Z,9.73
2023-04-20T21:30:01.120Z,10.40
2023-04-20T21:32:28.458Z,10.67
2023-04-20T21:34:55.724Z,10.50
2023-04-20T21:37:23.013Z,10.17
2023-04-20T21:39:54.031Z,8.60
2023-04-20T21:42:21.294Z,7.53
2023-04-20T21:44:48.601Z,8.43
2023-04-20T21:47:15.859Z,7.17
2023-04-20T21:49:44.512Z,8.03
2023-04-20T21:52:11.825Z,7.77
2023-04-20T21:54:41.236Z,7.70
2023-04-20T21:57:08.545Z,8.23
2023-04-20T21:59:35.866Z,7.93
2023-04-20T22:02:03.985Z,10.33
2023-04-20T22:04:32.467Z,8.83
2023-04-20T22:07:00.752Z,10.27
2023-04-20T22:09:28.043Z,10.90
2023-04-20T22:11:56.154Z,11.77
2023-04-20T22:14:23.553Z,13.30
2023-04-20T22:16:52.621Z,13.00
2023-04-20T22:19:20.057Z,14.67
2023-04-20T22:21:47.518Z,13.47
2023-04-20T22:24:14.781Z,13.77
2023-04-20T22:26:42.610Z,14.30
2023-04-20T22:29:09.895Z,15.37
2023-04-20T22:31:37.435Z,15.40
2023-04-20T22:34:04.741Z,19.83
2023-04-20T22:36:32.830Z,18.30
2023-04-20T22:39:00.318Z,18.93
2023-04-20T22:41:27.785Z,19.70
2023-04-20T22:43:55.097Z,20.07
2023-04-20T22:46:22.765Z,19.37
2023-04-20T22:48:50.079Z,19.70
2023-04-20T22:51:17.513Z,18.73
2023-04-20T22:53:45.266Z,16.43
2023-04-20T22:56:12.541Z,16.80
2023-04-20T22:58:39.860Z,17.30
2023-04-20T23:01:09.204Z,16.63
2023-04-20T23:03:37.509Z,16.20
2023-04-20T23:06:05.341Z,18.33
2023-04-20T23:08:33.774Z,17.10
2023-04-20T23:11:01.192Z,18.27
2023-04-20T23:13:28.636Z,16.87
2023-04-20T23:15:55.999Z,17.33
2023-04-20T23:18:23.334Z,17.07
2023-04-20T23:20:50.824Z,16.27
2023-04-20T23:23:18.627Z,17.30
2023-04-20T23:25:46.015Z,17.17
2023-04-20T23:28:13.248Z,17.03
2023-04-20T23:30:40.664Z,15.73
2023-04-20T23:33:08.061Z,17.40
2023-04-20T23:35:36.644Z,17.80
2023-04-20T23:38:04.826Z,17.73
2023-04-20T23:40:32.190Z,22.80
2023-04-20T23:42:59.669Z,24.77
2023-04-20T23:45:27.133Z,30.27
2023-04-20T23:47:54.423Z,30.90
2023-04-20T23:50:22.176Z,26.43
2023-04-20T23:52:49.470Z,27.30
2023-04-20T23:55:16.820Z,26.77
2023-04-20T23:57:44.096Z,26.57
